GMML

Details ICAO GMML (EUN)
Name HASSAN I
Region Morocco
Timezone Africa/El_Aaiun (UTC+1.0)
Plans Departing 57
Arriving 36
Stats Elevation 207 ft / 63 m (AMSL)
Location 27.143650° -13.225399°
Runways 2
Magnetic Variation 3.900° W
Sunrise 2018-06-18 05:59:49 UTC / 2018-06-18 06:59:49 Local
Sunset 2018-06-18 19:50:47 UTC / 2018-06-18 20:50:47 Local
Advertisement - Login to hide

Runways

ID Width Length Bearing (true) Bearing (mag) Surface Threshold Offset Overrun Length
02 148 ft / 45 m 8,890 ft / 2,710 m 16.42° 20.32° Asphalt 0 ft / 0 m 200 ft / 61 m
04 148 ft / 45 m 8,221 ft / 2,506 m 31.58° 35.48° Asphalt 0 ft / 0 m 0 ft / 0 m
20 148 ft / 45 m 8,890 ft / 2,710 m 196.43° 200.33° Asphalt 0 ft / 0 m 200 ft / 61 m
22 148 ft / 45 m 8,221 ft / 2,506 m 211.59° 215.49° Asphalt 0 ft / 0 m 658 ft / 201 m

Map

Weather


0- 5 10 15 20 25 30 35+ Temperature / ° C

Clouds and Precipitation
Forecast for 2018-06-18 12:00 UTC. Updated 6 hours ago

Ground ~20,000 ft ~40,000 ft Winds

METAR

GMML 181500Z 35017KT CAVOK 26/14 Q1017 NOSIG

TAF

TAF GMML 181100Z 1812/1918 04012KT CAVOK TEMPO 1818/1906 BKN020

Frequencies

Tower 131.10 MHz LAAYOUNE TWR
Approach 127.50 MHz LAAYOUNE APP
Warning: Do not use this data for real-world aviation or navigation. No guarantee of current accuracy is given.